createdAt,value
2023-05-02T00:03:56.316Z,6.22
2023-05-02T00:08:58.426Z,6.18
2023-05-02T00:14:00.572Z,6.13
2023-05-02T00:19:02.210Z,6.68
2023-05-02T00:24:04.231Z,6.95
2023-05-02T00:29:05.935Z,7.30
2023-05-02T00:34:07.778Z,8.05
2023-05-02T00:39:09.812Z,7.15
2023-05-02T00:44:11.447Z,6.93
2023-05-02T00:49:13.093Z,6.57
2023-05-02T00:54:15.037Z,6.60
2023-05-02T00:59:17.858Z,7.75
2023-05-02T01:04:25.668Z,7.50
2023-05-02T01:09:59.430Z,7.43
2023-05-02T01:15:07.764Z,6.80
2023-05-02T01:20:14.424Z,7.55
2023-05-02T01:25:30.408Z,6.32
2023-05-02T01:30:36.546Z,6.63
2023-05-02T01:35:38.861Z,7.17
2023-05-02T01:40:44.805Z,6.93
2023-05-02T01:45:50.778Z,6.23
2023-05-02T01:50:54.754Z,6.38
2023-05-02T01:55:59.574Z,6.28
2023-05-02T02:01:01.796Z,6.35
2023-05-02T02:06:04.921Z,5.45
2023-05-02T02:11:11.884Z,6.20
2023-05-02T02:21:19.587Z,6.40
2023-05-02T02:26:22.632Z,6.30
2023-05-02T02:31:25.855Z,6.55
2023-05-02T02:36:42.949Z,6.32
2023-05-02T02:42:05.444Z,6.38
2023-05-02T02:47:18.885Z,5.55
2023-05-02T02:52:56.080Z,6.03
2023-05-02T02:58:09.899Z,5.88
2023-05-02T03:03:14.322Z,6.20
2023-05-02T03:08:16.135Z,6.22
2023-05-02T03:13:18.013Z,5.70
2023-05-02T03:18:22.225Z,5.78
2023-05-02T03:23:28.795Z,5.53
2023-05-02T03:28:30.722Z,5.85
2023-05-02T03:33:33.691Z,6.05
2023-05-02T03:38:35.742Z,6.55
2023-05-02T03:43:41.332Z,6.72
2023-05-02T03:48:43.165Z,6.50
2023-05-02T03:53:46.455Z,6.55
2023-05-02T03:58:48.734Z,6.65
2023-05-02T04:03:54.843Z,6.35
2023-05-02T04:08:59.562Z,5.85
2023-05-02T04:14:07.756Z,6.30
2023-05-02T04:19:10.851Z,5.28
2023-05-02T04:24:14.108Z,5.35
2023-05-02T04:29:15.904Z,5.28
2023-05-02T04:34:18.596Z,6.28
2023-05-02T04:39:21.072Z,5.25
2023-05-02T04:44:35.095Z,5.35
2023-05-02T04:49:36.811Z,5.20
2023-05-02T04:54:38.474Z,4.78
2023-05-02T04:59:40.152Z,5.30
2023-05-02T05:04:42.622Z,4.78
2023-05-02T05:09:44.571Z,4.93
2023-05-02T05:14:46.466Z,5.18
2023-05-02T05:19:48.806Z,5.07
2023-05-02T05:24:54.633Z,4.53
2023-05-02T05:29:59.472Z,5.32
2023-05-02T05:35:02.177Z,4.45
2023-05-02T05:40:04.667Z,4.78
2023-05-02T05:45:07.233Z,4.80
2023-05-02T05:50:09.565Z,4.65
2023-05-02T05:55:12.239Z,4.97
2023-05-02T06:00:17.956Z,3.95
2023-05-02T06:05:29.480Z,4.32
2023-05-02T06:10:32.039Z,3.80
2023-05-02T06:15:35.297Z,3.92
2023-05-02T06:20:39.657Z,4.40
2023-05-02T06:25:41.553Z,3.88
2023-05-02T06:30:43.728Z,4.28
2023-05-02T06:35:51.507Z,3.67
2023-05-02T06:40:53.517Z,3.60
2023-05-02T06:45:58.827Z,3.38
2023-05-02T06:51:01.444Z,2.90
2023-05-02T06:56:03.500Z,2.45
2023-05-02T07:01:05.227Z,2.90
2023-05-02T07:06:06.944Z,2.58
2023-05-02T07:11:08.625Z,3.50
2023-05-02T07:16:10.419Z,2.88
2023-05-02T07:21:13.100Z,3.15
2023-05-02T07:26:14.755Z,2.88
2023-05-02T07:31:18.702Z,3.13
2023-05-02T07:36:21.758Z,3.67
2023-05-02T07:41:23.398Z,3.00
2023-05-02T07:46:25.077Z,3.92
2023-05-02T07:51:26.893Z,3.80
2023-05-02T07:56:28.597Z,4.05
2023-05-02T08:01:30.172Z,3.88
2023-05-02T08:06:34.698Z,3.55
2023-05-02T08:11:36.454Z,4.18
2023-05-02T08:16:38.172Z,3.88
2023-05-02T08:21:40.019Z,4.35
2023-05-02T08:26:41.650Z,3.55
2023-05-02T08:31:43.449Z,4.50
2023-05-02T08:36:45.201Z,3.70
2023-05-02T08:41:46.902Z,3.63
2023-05-02T08:46:51.030Z,3.60
2023-05-02T08:51:55.375Z,2.88
2023-05-02T08:56:59.497Z,3.20
2023-05-02T09:02:12.256Z,2.78
2023-05-02T09:07:16.539Z,3.15
2023-05-02T09:12:25.352Z,3.75
2023-05-02T09:17:27.005Z,3.17
2023-05-02T09:22:28.719Z,3.88
2023-05-02T09:27:30.682Z,4.07
2023-05-02T09:32:51.044Z,4.82
2023-05-02T09:37:54.779Z,4.80
2023-05-02T09:42:56.700Z,5.53
2023-05-02T09:48:02.413Z,6.53
2023-05-02T09:53:09.501Z,7.10
2023-05-02T09:58:25.653Z,6.50
2023-05-02T10:03:28.916Z,6.60
2023-05-02T10:08:33.497Z,6.22
2023-05-02T10:13:39.464Z,7.72
2023-05-02T10:18:48.429Z,8.63
2023-05-02T10:23:53.212Z,6.80
2023-05-02T10:28:56.595Z,8.35
2023-05-02T10:33:59.906Z,10.68
2023-05-02T10:39:02.883Z,9.85
2023-05-02T10:44:07.761Z,7.47
2023-05-02T10:49:13.733Z,8.77
2023-05-02T10:54:18.655Z,9.07
2023-05-02T10:59:28.703Z,9.25
2023-05-02T11:05:04.210Z,9.60
2023-05-02T11:10:18.290Z,9.60
2023-05-02T11:15:28.836Z,10.50
2023-05-02T11:20:32.308Z,9.85
2023-05-02T11:25:38.599Z,9.25
2023-05-02T11:30:45.276Z,8.35
2023-05-02T11:35:47.962Z,8.43
2023-05-02T11:41:00.179Z,7.97
2023-05-02T11:46:02.590Z,9.20
2023-05-02T11:51:07.043Z,9.20
2023-05-02T11:56:09.081Z,8.90
2023-05-02T12:01:15.697Z,7.65
2023-05-02T12:06:23.383Z,6.28
2023-05-02T12:11:25.242Z,6.60
2023-05-02T12:16:26.931Z,6.15
2023-05-02T12:21:35.754Z,6.35
2023-05-02T12:26:37.450Z,6.43
2023-05-02T12:31:39.998Z,6.32
2023-05-02T12:36:47.600Z,6.63
2023-05-02T12:41:49.192Z,5.95
2023-05-02T12:47:00.993Z,6.22
2023-05-02T12:52:02.839Z,6.60
2023-05-02T12:57:04.582Z,6.32
2023-05-02T13:02:06.300Z,8.05
2023-05-02T13:07:08.044Z,7.18
2023-05-02T13:12:09.983Z,7.15
2023-05-02T13:17:12.017Z,6.28
2023-05-02T13:22:13.753Z,6.00
2023-05-02T13:27:15.475Z,6.07
2023-05-02T13:32:17.088Z,6.35
2023-05-02T13:37:18.713Z,7.50
2023-05-02T13:42:20.334Z,8.32
2023-05-02T13:47:22.440Z,8.05
2023-05-02T13:52:24.058Z,8.95
2023-05-02T13:57:25.673Z,10.43
2023-05-02T14:02:27.572Z,10.38
2023-05-02T14:07:29.570Z,10.32
2023-05-02T14:12:31.695Z,9.88
2023-05-02T14:17:33.447Z,10.13
2023-05-02T14:22:35.017Z,11.43
2023-05-02T14:27:36.679Z,11.00
2023-05-02T14:32:38.446Z,10.73
2023-05-02T14:37:40.197Z,10.15
2023-05-02T14:42:42.648Z,10.35
2023-05-02T14:47:44.443Z,6.65
2023-05-02T14:52:48.971Z,5.70
2023-05-02T14:57:50.620Z,5.60
2023-05-02T15:02:52.510Z,5.88
2023-05-02T15:07:54.768Z,6.10
2023-05-02T15:12:56.970Z,5.57
2023-05-02T15:17:58.650Z,6.07
2023-05-02T15:23:07.346Z,5.00
2023-05-02T15:28:09.200Z,4.38
2023-05-02T15:33:12.499Z,3.95
2023-05-02T15:38:14.330Z,3.20
2023-05-02T15:43:15.944Z,2.60
2023-05-02T15:48:20.297Z,2.47
2023-05-02T15:53:25.281Z,2.55
2023-05-02T15:58:26.900Z,2.53
2023-05-02T16:03:32.153Z,3.33
2023-05-02T16:08:37.082Z,3.60
2023-05-02T16:13:38.824Z,3.50
2023-05-02T16:18:44.405Z,3.35
2023-05-02T16:23:46.240Z,3.63
2023-05-02T16:28:47.860Z,3.67
2023-05-02T16:33:50.860Z,4.30
2023-05-02T16:38:52.468Z,3.40
2023-05-02T16:43:54.067Z,2.72
2023-05-02T16:48:55.877Z,3.33
2023-05-02T16:53:57.507Z,3.15
2023-05-02T16:58:59.339Z,2.97
2023-05-02T17:04:01.079Z,3.30
2023-05-02T17:09:03.735Z,2.63
2023-05-02T17:14:05.477Z,3.22
2023-05-02T17:19:07.672Z,2.83
2023-05-02T17:24:09.396Z,2.70
2023-05-02T17:29:11.015Z,1.70
2023-05-02T17:34:12.880Z,1.90
2023-05-02T17:39:15.896Z,2.22
2023-05-02T17:44:17.677Z,2.70
2023-05-02T17:49:19.396Z,2.38
2023-05-02T17:54:21.206Z,2.67
2023-05-02T17:59:22.996Z,1.80
2023-05-02T18:04:25.424Z,1.92
2023-05-02T18:09:27.064Z,2.10
2023-05-02T18:14:28.619Z,1.70
2023-05-02T18:19:30.275Z,1.80
2023-05-02T18:24:32.712Z,2.58
2023-05-02T18:29:37.482Z,1.65
2023-05-02T18:34:39.319Z,1.83
2023-05-02T18:39:41.071Z,2.05
2023-05-02T18:44:42.698Z,1.85
2023-05-02T18:49:44.564Z,1.88
2023-05-02T18:54:47.549Z,1.60
2023-05-02T18:59:49.238Z,2.00
2023-05-02T19:04:53.670Z,1.40
2023-05-02T19:09:55.330Z,2.38
2023-05-02T19:14:56.949Z,2.20
2023-05-02T19:19:58.557Z,1.73
2023-05-02T19:25:00.854Z,2.08
2023-05-02T19:30:04.157Z,2.70
2023-05-02T19:35:07.130Z,4.57
2023-05-02T19:40:10.816Z,2.75
2023-05-02T19:45:13.808Z,2.30
2023-05-02T19:50:15.735Z,2.20
2023-05-02T19:55:18.458Z,1.88
2023-05-02T20:00:20.202Z,2.13
2023-05-02T20:05:21.819Z,2.03
2023-05-02T20:10:23.509Z,2.25
2023-05-02T20:15:25.906Z,2.17
2023-05-02T20:20:28.727Z,2.38
2023-05-02T20:25:30.386Z,2.90
2023-05-02T20:30:32.356Z,2.63
2023-05-02T20:35:34.104Z,2.35
2023-05-02T20:40:39.205Z,2.25
2023-05-02T20:45:40.855Z,2.25
2023-05-02T20:50:42.593Z,3.22
2023-05-02T20:55:44.188Z,3.65
2023-05-02T21:00:52.153Z,3.22
2023-05-02T21:05:56.658Z,2.97
2023-05-02T21:10:58.299Z,2.47
2023-05-02T21:15:59.910Z,3.80
2023-05-02T21:21:01.596Z,2.90
2023-05-02T21:26:03.951Z,3.13
2023-05-02T21:31:07.309Z,4.57
2023-05-02T21:36:09.354Z,3.17
2023-05-02T21:41:10.965Z,2.83
2023-05-02T21:46:12.662Z,2.90
2023-05-02T21:51:14.398Z,2.75
2023-05-02T21:56:15.998Z,2.58
2023-05-02T22:01:18.098Z,2.20
2023-05-02T22:06:19.742Z,2.70
2023-05-02T22:11:21.793Z,2.92
2023-05-02T22:16:23.937Z,3.10
2023-05-02T22:21:25.855Z,2.90
2023-05-02T22:26:27.484Z,2.80
2023-05-02T22:31:29.235Z,3.03
2023-05-02T22:36:31.190Z,3.67
2023-05-02T22:41:32.768Z,2.75
2023-05-02T22:46:34.632Z,3.28
2023-05-02T22:51:39.972Z,2.78
2023-05-02T22:56:41.629Z,2.60
2023-05-02T23:01:43.247Z,2.53
2023-05-02T23:06:45.322Z,2.50
2023-05-02T23:11:46.922Z,3.22
2023-05-02T23:16:49.896Z,3.08
2023-05-02T23:21:51.674Z,2.92
2023-05-02T23:26:53.342Z,3.03
2023-05-02T23:31:55.609Z,2.90
2023-05-02T23:36:57.287Z,3.45
2023-05-02T23:41:58.966Z,3.15
2023-05-02T23:47:00.654Z,3.90
2023-05-02T23:52:02.770Z,3.85
2023-05-02T23:57:04.548Z,4.30
